»·PEaware :: N786SG KSBA-KSAN

N786SG :: KSBA-KSAN

FLIGHT INFORMATION

Flight Status: Arrived
Operator: Privately registered:
United States
More flights under this callsign
Pilot: Sulaiman S. (16428)
Aircraft: BOMBARDIER BD-100 CHALLENGER 300
(CL30)
More flights by this aircraft type
Origin: KSBA Santa Barbara Mun
United States
Destination: KSAN San Diego Intl-Lindbergh
United States
More flights between these airports :: More routes between these airports
Route: +KWANG VTU V208 SXC V208 LAX118 CARDI MZB320 MZB
File this flight plan on PilotEdge
Remarks:
Altitude:
(Current/Filed)
17,000ft
Speed:
(Current/Filed)
400kts
Departed: 04-Oct-17 01:47 PM
Arrived: 04-Oct-17 02:30 PM
Distance/Time
Traveled:
167nm/0:43
Distance/Time
To Go:
Arrived

Flight Plot

Page will automatically refresh every two minutes.


Map Options




Map Legend


Flown Route
Filed Route
Departure Airport
Arrival Airport
Navaid (VOR, NDB)
Fix

Horizontal Profiles

Position Reports

Time Latitude Longitude Heading Altitude Ground
Speed
04-Oct-17 13:25 34.429051 -119.845351 247 19ft 0kts
04-Oct-17 13:26 34.429051 -119.845351 247 19ft 0kts
04-Oct-17 13:27 34.429051 -119.845351 247 19ft 0kts
04-Oct-17 13:28 34.429051 -119.845351 247 19ft 0kts
04-Oct-17 13:29 34.429051 -119.845351 247 19ft 0kts
04-Oct-17 13:30 34.429051 -119.845351 247 19ft 0kts
04-Oct-17 13:31 34.429051 -119.845351 247 19ft 0kts
04-Oct-17 13:32 34.429051 -119.845351 247 19ft 0kts
04-Oct-17 13:33 34.429051 -119.845351 247 19ft 0kts
04-Oct-17 13:34 34.429051 -119.845351 247 19ft 0kts
04-Oct-17 13:35 34.429051 -119.845351 247 19ft 0kts
04-Oct-17 13:36 34.429051 -119.845351 247 19ft 0kts
04-Oct-17 13:37 34.429051 -119.845351 247 19ft 0kts
04-Oct-17 13:38 34.429051 -119.845351 247 19ft 0kts
04-Oct-17 13:39 34.429051 -119.845351 247 19ft 0kts
04-Oct-17 13:40 34.429051 -119.845351 247 19ft 0kts
04-Oct-17 13:41 34.429051 -119.845351 247 19ft 0kts
04-Oct-17 13:42 34.429051 -119.845351 247 19ft 0kts
04-Oct-17 13:43 34.429051 -119.845351 247 19ft 0kts
04-Oct-17 13:44 34.429051 -119.845351 247 19ft 0kts
04-Oct-17 13:45 34.429477 -119.843014 78 20ft 17kts
04-Oct-17 13:46 34.429860 -119.841887 62 20ft 0kts
04-Oct-17 13:47 34.429860 -119.841887 62 20ft 0kts
04-Oct-17 13:48 34.429900 -119.841794 62 20ft 0kts
04-Oct-17 13:49 34.429686 -119.841216 164 19ft 0kts
04-Oct-17 13:50 34.429686 -119.841216 164 19ft 0kts
04-Oct-17 13:51 34.403941 -119.833293 165 700ft 186kts
04-Oct-17 13:52 34.352840 -119.817637 165 2931ft 203kts
04-Oct-17 13:53 34.284990 -119.796985 165 3016ft 288kts
04-Oct-17 13:54 34.205306 -119.756889 152 5202ft 325kts
04-Oct-17 13:55 34.122979 -119.704668 152 8007ft 358kts
04-Oct-17 13:56 34.035864 -119.647388 151 8003ft 354kts
04-Oct-17 13:57 33.950035 -119.590841 151 7976ft 350kts
04-Oct-17 13:58 33.885276 -119.506107 120 9665ft 370kts
04-Oct-17 13:59 33.833110 -119.393632 119 10926ft 383kts
04-Oct-17 14:00 33.783843 -119.287580 120 10954ft 364kts
04-Oct-17 14:01 33.734610 -119.181940 120 10956ft 362kts
04-Oct-17 14:02 33.685309 -119.076477 120 10956ft 361kts
04-Oct-17 14:03 33.636110 -118.971551 120 10957ft 361kts
04-Oct-17 14:04 33.586870 -118.866840 120 10977ft 360kts
04-Oct-17 14:05 33.537545 -118.762265 120 10984ft 360kts
04-Oct-17 14:06 33.488096 -118.657731 120 10985ft 360kts
04-Oct-17 14:07 33.441964 -118.560486 120 10960ft 360kts
04-Oct-17 14:08 33.392419 -118.456338 120 10965ft 360kts
04-Oct-17 14:09 33.358517 -118.345439 107 10985ft 362kts
04-Oct-17 14:10 33.330599 -118.229817 106 10983ft 362kts
04-Oct-17 14:11 33.303044 -118.114167 106 10935ft 363kts
04-Oct-17 14:12 33.275786 -117.999378 107 10976ft 361kts
04-Oct-17 14:13 33.248139 -117.883876 107 10975ft 360kts
04-Oct-17 14:14 33.220716 -117.769623 107 10976ft 359kts
04-Oct-17 14:15 33.192987 -117.654546 107 10976ft 359kts
04-Oct-17 14:16 33.165446 -117.540737 107 10976ft 359kts
04-Oct-17 14:17 33.127666 -117.433067 145 10969ft 350kts
04-Oct-17 14:18 33.044184 -117.375167 154 10977ft 348kts
04-Oct-17 14:19 32.958854 -117.324532 156 10973ft 348kts
04-Oct-17 14:20 32.872000 -117.275448 157 10976ft 348kts
04-Oct-17 14:21 32.784774 -117.227001 157 10976ft 348kts
04-Oct-17 14:22 32.714352 -117.151055 120 10983ft 356kts
04-Oct-17 14:23 32.704090 -117.043484 91 10916ft 305kts
04-Oct-17 14:24 32.704601 -116.944210 90 9405ft 297kts
04-Oct-17 14:25 32.703519 -116.849142 90 7923ft 278kts
04-Oct-17 14:26 32.658392 -116.803444 212 4985ft 244kts
04-Oct-17 14:27 32.654073 -116.864778 281 4981ft 194kts
04-Oct-17 14:28 32.664803 -116.928277 281 5024ft 196kts
04-Oct-17 14:29 32.676183 -116.992099 286 4431ft 193kts
04-Oct-17 14:30 32.696134 -117.042392 294 3731ft 128kts
04-Oct-17 14:31 32.709126 -117.081509 285 3438ft 158kts
04-Oct-17 14:32 32.718982 -117.130260 288 1962ft 143kts
04-Oct-17 14:33 32.729857 -117.174685 288 134ft 123kts
04-Oct-17 14:34 32.734551 -117.190836 21 24ft 0kts
04-Oct-17 14:35 32.734664 -117.189479 106 24ft 18kts
04-Oct-17 14:36 32.732824 -117.181893 106 23ft 21kts
04-Oct-17 14:37 32.732766 -117.178324 58 24ft 0kts
04-Oct-17 14:38 32.732766 -117.178324 58 24ft 0kts
04-Oct-17 14:39 32.732766 -117.178324 58 24ft 0kts
04-Oct-17 14:40 32.732766 -117.178324 58 24ft 0kts
04-Oct-17 14:41 32.732766 -117.178324 58 24ft 0kts
04-Oct-17 14:42 32.732766 -117.178324 58 24ft 0kts
04-Oct-17 14:43 32.732766 -117.178324 58 24ft 0kts
04-Oct-17 14:44 32.732766 -117.178324 58 24ft 0kts
04-Oct-17 14:45 32.732766 -117.178324 58 24ft 0kts
04-Oct-17 14:46 32.732766 -117.178324 58 24ft 0kts
04-Oct-17 14:47 32.732766 -117.178324 58 24ft 0kts

Navigation Log

Ident Type
1. KSBA Airport
2. KWANG Fix
3. VTU Navaid
4. WEEZL Fix
5. SXC Navaid
6. CARDI Fix
7. MZB Navaid
8. KSAN Airport